Time;durP1;ratioP1;P1;durP2;ratioP2;P2;SDS_P1;SDS_P2;PMS_P1;PMS_P2;Temp;Humidity;BMP_temperature;BMP_pressure;BME280_temperature;BME280_humidity;BME280_pressure;Samples;Min_cycle;Max_cycle;Signal;HPM_P1;HPM_P2
2023/08/19 00:02:55;;;;;;;10.18;7.68;;;;;;;22.21;100.00;100431.09;5608295;31;34175;-69
2023/08/19 00:06:08;;;;;;;9.38;7.43;;;;;;;22.18;100.00;100428.84;5608227;31;34165;-69
2023/08/19 00:09:11;;;;;;;10.55;7.97;;;;;;;22.12;100.00;100431.72;5607940;31;33989;-69
2023/08/19 00:12:14;;;;;;;8.98;7.50;;;;;;;22.04;100.00;100436.44;5607046;31;34018;-69
2023/08/19 00:15:16;;;;;;;8.82;7.45;;;;;;;22.04;100.00;100438.31;5607897;31;33919;-69
2023/08/19 00:18:19;;;;;;;9.60;7.60;;;;;;;22.08;100.00;100431.38;5607919;31;34239;-69
2023/08/19 00:21:22;;;;;;;9.63;7.57;;;;;;;22.15;100.00;100433.94;5608050;31;34023;-69
2023/08/19 00:24:25;;;;;;;9.27;7.55;;;;;;;22.10;100.00;100435.47;5607010;31;33822;-69
2023/08/19 00:27:27;;;;;;;9.38;7.43;;;;;;;22.08;100.00;100436.78;5607691;31;34140;-69
2023/08/19 00:30:31;;;;;;;12.98;7.90;;;;;;;21.94;100.00;100427.31;5606900;31;33846;-69
2023/08/19 00:33:34;;;;;;;8.13;7.32;;;;;;;21.86;100.00;100441.19;5607702;31;33851;-69
2023/08/19 00:36:37;;;;;;;9.30;8.02;;;;;;;21.86;100.00;100446.59;5607600;31;34005;-69
2023/08/19 00:39:40;;;;;;;14.57;8.02;;;;;;;21.82;100.00;100438.16;5607865;31;34011;-69
2023/08/19 00:42:43;;;;;;;9.13;7.40;;;;;;;21.79;100.00;100448.59;5607544;31;34161;-69
2023/08/19 00:45:47;;;;;;;10.98;8.40;;;;;;;21.77;100.00;100446.16;5607423;31;34085;-69
2023/08/19 00:48:51;;;;;;;10.13;8.27;;;;;;;21.74;100.00;100451.19;5607645;31;33848;-69
2023/08/19 00:51:54;;;;;;;9.25;7.97;;;;;;;21.71;100.00;100439.00;5607405;31;34153;-69
2023/08/19 00:54:57;;;;;;;9.55;8.05;;;;;;;21.72;100.00;100443.34;5607587;31;34369;-68
2023/08/19 00:58:03;;;;;;;8.82;7.80;;;;;;;21.74;100.00;100435.81;5607397;31;33840;-68
2023/08/19 01:01:07;;;;;;;10.40;8.27;;;;;;;21.69;100.00;100435.69;5607276;31;35095;-69
2023/08/19 01:04:10;;;;;;;10.85;8.13;;;;;;;21.64;100.00;100430.19;5606638;31;35406;-68
2023/08/19 01:07:28;;;;;;;9.40;7.60;;;;;;;21.61;100.00;100431.50;5607382;31;33720;-68
2023/08/19 01:10:39;;;;;;;10.13;7.85;;;;;;;21.61;100.00;100422.59;5607472;31;34092;-67
2023/08/19 01:13:52;;;;;;;;;;;;;;;21.51;100.00;100433.16;5607439;31;34752;-67
2023/08/19 01:16:55;;;;;;;11.60;8.23;;;;;;;21.42;100.00;100434.59;5607260;31;35140;-68
2023/08/19 01:19:58;;;;;;;10.48;8.65;;;;;;;21.45;100.00;100440.34;5607217;31;34193;-68
2023/08/19 01:23:13;;;;;;;10.32;8.40;;;;;;;21.46;100.00;100441.16;5607047;31;35089;-68
2023/08/19 01:26:18;;;;;;;9.65;8.65;;;;;;;21.44;100.00;100446.00;5606336;31;34785;-68
2023/08/19 01:29:21;;;;;;;11.07;8.20;;;;;;;21.40;100.00;100442.09;5607187;31;34719;-67
2023/08/19 01:32:24;;;;;;;14.80;8.50;;;;;;;21.37;100.00;100435.31;5607305;31;33839;-68
2023/08/19 01:35:30;;;;;;;9.63;8.40;;;;;;;21.36;100.00;100438.25;5607166;31;34831;-68
2023/08/19 01:38:44;;;;;;;12.40;8.15;;;;;;;21.36;100.00;100439.06;5607097;31;34158;-67
2023/08/19 01:41:48;;;;;;;11.12;8.25;;;;;;;21.37;100.00;100438.00;5607060;31;34168;-67
2023/08/19 01:44:52;;;;;;;13.27;8.23;;;;;;;21.33;100.00;100442.25;5607234;31;34123;-68
2023/08/19 01:47:55;;;;;;;14.93;8.68;;;;;;;21.31;100.00;100444.34;5606485;31;34754;-67
2023/08/19 01:50:57;;;;;;;10.70;8.40;;;;;;;21.24;100.00;100449.06;5606144;31;34964;-67
2023/08/19 01:54:00;;;;;;;13.13;8.18;;;;;;;21.22;100.00;100451.97;5607021;31;34159;-68
2023/08/19 01:57:03;;;;;;;15.18;8.20;;;;;;;21.20;100.00;100456.78;5606994;31;33803;-67
2023/08/19 02:00:07;;;;;;;14.38;8.48;;;;;;;21.22;100.00;100459.25;5607205;31;34741;-67
2023/08/19 02:03:15;;;;;;;10.55;8.57;;;;;;;21.17;100.00;100459.97;5606744;31;35226;-67
2023/08/19 02:06:18;;;;;;;14.15;7.82;;;;;;;21.12;100.00;100464.37;5607086;31;34029;-68
2023/08/19 02:09:21;;;;;;;10.52;8.38;;;;;;;21.07;100.00;100461.56;5605865;31;34031;-68
2023/08/19 02:12:25;;;;;;;12.52;8.48;;;;;;;21.00;100.00;100456.31;5605878;31;35083;-67
2023/08/19 02:15:27;;;;;;;11.55;8.18;;;;;;;20.95;100.00;100458.06;5607107;31;35201;-68
2023/08/19 02:18:30;;;;;;;10.52;8.82;;;;;;;20.90;100.00;100453.38;5605935;31;33840;-68
2023/08/19 02:21:33;;;;;;;12.98;8.70;;;;;;;20.96;100.00;100457.00;5606580;31;32799;-68
2023/08/19 02:24:36;;;;;;;10.82;8.45;;;;;;;20.92;100.00;100458.50;5606589;31;34182;-67
2023/08/19 02:27:39;;;;;;;12.07;8.23;;;;;;;20.83;100.00;100449.94;5605783;31;34114;-67
2023/08/19 02:30:42;;;;;;;12.43;8.68;;;;;;;20.78;100.00;100452.53;5606871;31;33922;-67
2023/08/19 02:33:44;;;;;;;10.32;8.65;;;;;;;20.71;100.00;100441.84;5606570;31;34052;-68
2023/08/19 02:36:47;;;;;;;11.12;8.00;;;;;;;20.69;100.00;100445.81;5606524;31;34798;-68
2023/08/19 02:39:50;;;;;;;13.90;8.32;;;;;;;20.61;100.00;100436.22;5606633;31;34778;-68
2023/08/19 02:42:53;;;;;;;9.85;8.82;;;;;;;20.57;100.00;100440.44;5606764;31;35207;-67
2023/08/19 02:45:57;;;;;;;12.15;8.70;;;;;;;20.51;100.00;100441.34;5606341;31;34070;-67
2023/08/19 02:48:59;;;;;;;10.30;8.70;;;;;;;20.46;100.00;100438.53;5606447;31;34163;-67
2023/08/19 02:52:03;;;;;;;14.15;9.25;;;;;;;20.52;100.00;100437.63;5606384;31;35000;-68
2023/08/19 02:55:06;;;;;;;10.60;8.80;;;;;;;20.60;100.00;100433.75;5606475;31;34261;-68
2023/08/19 02:58:09;;;;;;;12.18;9.00;;;;;;;20.61;100.00;100428.13;5606344;31;33989;-68
2023/08/19 03:01:13;;;;;;;9.90;8.80;;;;;;;20.56;100.00;100419.09;5605380;31;34054;-68
2023/08/19 03:04:16;;;;;;;9.65;8.65;;;;;;;20.52;100.00;100426.81;5606314;31;34635;-68
2023/08/19 03:07:18;;;;;;;12.35;9.05;;;;;;;20.49;100.00;100427.28;5606452;31;34011;-68
2023/08/19 03:10:21;;;;;;;11.27;9.00;;;;;;;20.51;100.00;100427.06;5606460;31;34128;-68
2023/08/19 03:13:24;;;;;;;13.05;8.88;;;;;;;20.44;100.00;100427.13;5606106;31;34022;-68
2023/08/19 03:16:27;;;;;;;13.65;9.48;;;;;;;20.43;100.00;100422.00;5605471;31;34645;-68
2023/08/19 03:19:30;;;;;;;11.48;9.00;;;;;;;20.43;100.00;100420.09;5605763;31;34162;-68
2023/08/19 03:22:33;;;;;;;9.98;8.98;;;;;;;20.44;100.00;100426.31;5605868;31;33975;-68
2023/08/19 03:25:35;;;;;;;11.88;9.57;;;;;;;20.37;100.00;100431.81;5599617;31;34186;-68
2023/08/19 03:28:38;;;;;;;13.10;9.63;;;;;;;20.33;100.00;100436.84;5585645;31;34234;-68
2023/08/19 03:31:41;;;;;;;11.30;9.35;;;;;;;20.32;100.00;100437.09;5586143;31;34502;-68
2023/08/19 03:34:44;;;;;;;11.40;10.25;;;;;;;20.31;100.00;100443.53;5586022;31;33886;-68
2023/08/19 03:37:46;;;;;;;12.25;9.50;;;;;;;20.31;100.00;100436.25;5585142;31;33918;-68
2023/08/19 03:40:49;;;;;;;12.82;9.73;;;;;;;20.34;100.00;100446.56;5585930;31;34145;-68
2023/08/19 03:43:52;;;;;;;11.00;9.90;;;;;;;20.28;100.00;100446.66;5585817;31;34744;-68
2023/08/19 03:46:54;;;;;;;11.93;10.05;;;;;;;20.34;100.00;100451.13;5585199;31;33888;-68
2023/08/19 03:49:57;;;;;;;10.88;9.77;;;;;;;20.37;100.00;100458.78;5597601;31;34963;-68
2023/08/19 03:53:00;;;;;;;15.18;9.70;;;;;;;20.35;100.00;100455.47;5605167;31;34079;-68
2023/08/19 03:56:04;;;;;;;11.35;9.70;;;;;;;20.37;100.00;100454.22;5605312;31;34053;-68
2023/08/19 03:59:07;;;;;;;11.15;9.88;;;;;;;20.44;100.00;100461.34;5605378;31;33831;-68
2023/08/19 04:02:09;;;;;;;10.43;9.32;;;;;;;20.45;100.00;100465.69;5605456;31;34816;-68
2023/08/19 04:05:12;;;;;;;12.80;9.52;;;;;;;20.47;100.00;100464.44;5605107;31;34175;-69
2023/08/19 04:08:15;;;;;;;11.75;9.15;;;;;;;20.51;100.00;100465.59;5605427;31;34073;-68
2023/08/19 04:11:18;;;;;;;10.82;9.27;;;;;;;20.53;100.00;100465.34;5605164;31;33845;-68
2023/08/19 04:14:20;;;;;;;9.93;8.93;;;;;;;20.54;100.00;100469.69;5605305;31;34406;-68
2023/08/19 04:17:23;;;;;;;12.73;8.68;;;;;;;20.57;100.00;100464.69;5604992;31;34184;-68
2023/08/19 04:20:26;;;;;;;14.60;8.75;;;;;;;20.63;100.00;100481.78;5604808;31;34093;-68
2023/08/19 04:23:29;;;;;;;13.20;8.45;;;;;;;20.70;100.00;100472.56;5585593;31;32061;-68
2023/08/19 04:26:31;;;;;;;11.00;8.40;;;;;;;20.82;100.00;100481.47;5584226;31;34236;-68
2023/08/19 04:29:34;;;;;;;10.52;7.97;;;;;;;20.87;100.00;100486.19;5584494;31;34155;-68
2023/08/19 04:32:37;;;;;;;10.98;7.90;;;;;;;20.97;100.00;100472.13;5587479;31;34191;-68
2023/08/19 04:35:40;;;;;;;14.25;7.30;;;;;;;21.05;100.00;100471.78;5587011;31;34609;-68
2023/08/19 04:38:43;;;;;;;9.80;7.40;;;;;;;21.07;100.00;100473.19;5588208;31;33983;-68
2023/08/19 04:41:46;;;;;;;10.00;7.00;;;;;;;21.15;100.00;100467.50;5587685;31;33988;-68
2023/08/19 04:44:51;;;;;;;9.70;6.55;;;;;;;21.24;100.00;100468.78;5586893;31;33868;-68
2023/08/19 04:47:54;;;;;;;9.60;6.60;;;;;;;21.24;100.00;100476.03;5587743;31;34131;-68
2023/08/19 04:50:57;;;;;;;10.43;6.45;;;;;;;21.30;100.00;100475.09;5586846;31;34797;-68
2023/08/19 04:54:00;;;;;;;10.55;6.50;;;;;;;21.37;100.00;100478.50;5588062;31;34083;-68
2023/08/19 04:57:03;;;;;;;9.48;6.35;;;;;;;21.44;100.00;100479.22;5587577;31;34263;-68
2023/08/19 05:00:08;;;;;;;12.00;7.28;;;;;;;21.54;100.00;100475.91;5587507;31;34742;-68
2023/08/19 05:03:12;;;;;;;8.25;6.55;;;;;;;21.85;100.00;100488.16;5587694;31;33996;-68
2023/08/19 05:06:15;;;;;;;9.80;6.37;;;;;;;21.94;100.00;100492.16;5587531;31;33910;-68
2023/08/19 05:09:18;;;;;;;9.88;6.37;;;;;;;22.10;100.00;100502.22;5587493;31;35117;-68
2023/08/19 05:12:22;;;;;;;8.63;6.22;;;;;;;22.12;100.00;100502.81;5587511;31;34756;-69
2023/08/19 05:15:25;;;;;;;9.52;6.10;;;;;;;22.41;100.00;100511.72;5587489;31;34182;-68
2023/08/19 05:18:28;;;;;;;12.35;6.10;;;;;;;22.16;100.00;100513.94;5586884;31;34480;-67
2023/08/19 05:21:31;;;;;;;7.90;6.00;;;;;;;22.23;100.00;100517.31;5586409;31;34198;-69
2023/08/19 05:24:34;;;;;;;9.23;5.80;;;;;;;22.30;100.00;100523.41;5586540;31;34796;-68
2023/08/19 05:27:37;;;;;;;7.15;5.47;;;;;;;22.49;100.00;100527.56;5587423;31;34859;-68
2023/08/19 05:30:39;;;;;;;6.60;5.68;;;;;;;22.67;100.00;100526.53;5586699;31;34004;-68
2023/08/19 05:33:42;;;;;;;7.37;5.60;;;;;;;22.93;100.00;100531.34;5587481;31;34608;-68
2023/08/19 05:36:45;;;;;;;8.85;5.87;;;;;;;22.86;100.00;100530.66;5587594;31;35088;-68
2023/08/19 05:39:49;;;;;;;9.20;5.45;;;;;;;22.98;100.00;100533.31;5587403;31;34105;-68
2023/08/19 05:42:52;;;;;;;8.38;5.50;;;;;;;23.17;100.00;100535.53;5585957;31;33859;-68
2023/08/19 05:45:54;;;;;;;7.65;5.55;;;;;;;23.28;100.00;100541.94;5587452;31;34085;-68
2023/08/19 05:48:57;;;;;;;8.68;5.80;;;;;;;23.26;100.00;100541.34;5587296;31;34138;-68
2023/08/19 05:52:00;;;;;;;8.23;6.35;;;;;;;23.18;100.00;100547.19;5587221;31;33829;-68
2023/08/19 05:55:03;;;;;;;10.10;5.87;;;;;;;23.23;100.00;100556.22;5587143;31;33842;-68
2023/08/19 05:58:06;;;;;;;11.82;5.60;;;;;;;23.49;100.00;100567.44;5587136;31;34714;-68
2023/08/19 06:01:09;;;;;;;7.12;5.53;;;;;;;23.69;100.00;100556.91;5586438;31;34751;-68
2023/08/19 06:04:12;;;;;;;10.80;5.85;;;;;;;23.73;100.00;100561.59;5587030;31;33878;-68
2023/08/19 06:07:15;;;;;;;10.68;6.00;;;;;;;23.74;100.00;100590.31;5587109;31;34512;-68
2023/08/19 06:10:18;;;;;;;6.78;5.82;;;;;;;23.93;100.00;100600.88;5588636;31;33847;-68
2023/08/19 06:13:21;;;;;;;8.23;5.30;;;;;;;24.05;100.00;100610.53;5586500;31;34529;-68
2023/08/19 06:16:24;;;;;;;6.37;5.40;;;;;;;24.13;100.00;100610.09;5586442;31;35155;-68
2023/08/19 06:19:26;;;;;;;8.55;5.90;;;;;;;24.05;100.00;100605.12;5586784;31;34889;-69
2023/08/19 06:22:29;;;;;;;7.20;5.90;;;;;;;24.07;100.00;100621.09;5586917;31;34375;-68
2023/08/19 06:25:32;;;;;;;11.15;7.50;;;;;;;23.82;100.00;100635.12;5586909;31;33905;-69
2023/08/19 06:28:35;;;;;;;9.57;5.85;;;;;;;23.61;100.00;100657.56;5590070;31;34660;-69
2023/08/19 06:31:38;;;;;;;9.23;5.18;;;;;;;23.51;100.00;100679.06;5586026;31;34021;-69
2023/08/19 06:34:41;;;;;;;9.15;5.50;;;;;;;23.36;100.00;100675.00;5586635;31;34110;-69
2023/08/19 06:37:49;;;;;;;8.93;5.22;;;;;;;23.14;100.00;100679.47;5586864;31;33860;-70
2023/08/19 06:40:58;;;;;;;10.52;5.18;;;;;;;22.90;100.00;100713.91;5586697;31;34031;-69
2023/08/19 06:44:03;;;;;;;8.73;7.03;;;;;;;22.96;100.00;100722.97;5586624;31;34575;-70
2023/08/19 06:47:09;;;;;;;12.70;8.65;;;;;;;22.87;100.00;100740.62;5586624;31;33966;-69
2023/08/19 06:50:13;;;;;;;13.18;8.63;;;;;;;22.72;100.00;100746.53;5604715;31;34718;-70
2023/08/19 06:53:16;;;;;;;10.20;6.82;;;;;;;22.63;100.00;100763.34;5605762;31;35514;-70
2023/08/19 06:57:03;;;;;;;14.20;6.10;;;;;;;22.39;100.00;100765.25;5606454;31;34562;-69
2023/08/19 07:00:09;;;;;;;7.62;5.80;;;;;;;22.17;100.00;100785.81;5606310;31;37028;-69
2023/08/19 07:03:13;;;;;;;6.20;4.78;;;;;;;22.02;100.00;100797.91;5606252;31;34828;-70
2023/08/19 07:06:22;;;;;;;8.77;4.28;;;;;;;21.82;100.00;100785.72;5606072;31;34795;-69
2023/08/19 07:09:25;;;;;;;11.15;4.87;;;;;;;21.67;100.00;100786.16;5606215;31;34614;-73
2023/08/19 07:12:28;;;;;;;23.48;8.07;;;;;;;21.35;100.00;100790.16;5605400;31;34177;-72
2023/08/19 07:15:31;;;;;;;11.40;5.90;;;;;;;20.54;100.00;100788.59;5606175;31;34756;-72
2023/08/19 07:18:41;;;;;;;10.32;5.95;;;;;;;20.06;100.00;100804.53;5606447;31;34147;-72
2023/08/19 07:21:46;;;;;;;11.47;5.73;;;;;;;19.86;100.00;100811.94;5606082;31;34638;-71
2023/08/19 07:24:51;;;;;;;9.23;6.00;;;;;;;19.65;100.00;100807.75;5603460;31;34194;-72
2023/08/19 07:27:54;;;;;;;8.65;6.07;;;;;;;19.43;100.00;100793.75;5606097;31;33955;-73
2023/08/19 07:30:57;;;;;;;6.70;5.45;;;;;;;19.31;100.00;100800.84;5605938;31;34295;-74
2023/08/19 07:34:00;;;;;;;8.27;6.22;;;;;;;19.23;100.00;100797.56;5606003;31;34085;-74
2023/08/19 07:37:03;;;;;;;10.52;7.72;;;;;;;19.13;100.00;100800.72;5606184;31;34154;-74
2023/08/19 07:40:08;;;;;;;12.25;8.20;;;;;;;19.10;100.00;100798.47;5606174;31;35022;-74
2023/08/19 07:43:11;;;;;;;11.45;8.30;;;;;;;19.21;100.00;100800.50;5605676;31;34055;-73
2023/08/19 07:46:17;;;;;;;12.27;9.25;;;;;;;19.34;100.00;100803.09;5605723;31;34037;-74
2023/08/19 07:49:20;;;;;;;12.02;8.48;;;;;;;19.43;100.00;100801.81;5600549;31;32542;-74
2023/08/19 07:52:22;;;;;;;8.43;7.20;;;;;;;19.45;100.00;100789.03;5584948;31;34230;-74
2023/08/19 07:55:25;;;;;;;8.18;6.43;;;;;;;19.40;100.00;100777.22;5585695;31;34182;-74
2023/08/19 07:58:28;;;;;;;9.32;6.85;;;;;;;19.30;100.00;100764.22;5585597;31;35374;-74
2023/08/19 08:01:31;;;;;;;10.32;7.55;;;;;;;19.28;100.00;100770.84;5584788;31;34692;-73
2023/08/19 08:04:34;;;;;;;9.35;7.30;;;;;;;19.38;100.00;100774.72;5595411;31;34106;-75
2023/08/19 08:07:37;;;;;;;10.05;7.05;;;;;;;19.50;100.00;100770.38;5607440;31;34076;-75
2023/08/19 08:10:40;;;;;;;11.27;8.30;;;;;;;19.44;100.00;100765.00;5608149;31;33969;-75
2023/08/19 08:13:43;;;;;;;10.23;7.57;;;;;;;19.54;100.00;100778.81;5593910;31;33892;-74
2023/08/19 08:16:46;;;;;;;11.20;7.93;;;;;;;19.69;100.00;100775.81;5594350;31;34002;-74
2023/08/19 08:19:48;;;;;;;9.82;7.87;;;;;;;19.83;100.00;100772.00;5607956;31;34219;-73
2023/08/19 08:22:51;;;;;;;10.27;7.43;;;;;;;19.89;100.00;100773.81;5608022;31;33843;-75
2023/08/19 08:25:54;;;;;;;10.25;7.47;;;;;;;19.85;100.00;100759.94;5593661;31;35075;-77
2023/08/19 08:28:57;;;;;;;12.23;8.45;;;;;;;19.80;100.00;100753.59;5593941;31;34811;-74
2023/08/19 08:31:59;;;;;;;11.00;7.62;;;;;;;19.78;100.00;100748.41;5608272;31;34617;-76
2023/08/19 08:35:03;;;;;;;12.93;8.32;;;;;;;19.74;100.00;100741.81;5607555;31;34225;-76
2023/08/19 08:38:05;;;;;;;10.50;8.02;;;;;;;19.70;100.00;100734.41;5608127;31;34348;-77
2023/08/19 08:41:09;;;;;;;14.63;8.90;;;;;;;19.70;100.00;100729.84;5607620;31;35168;-76
2023/08/19 08:44:12;;;;;;;13.75;9.25;;;;;;;19.70;100.00;100726.34;5607586;31;34738;-76
2023/08/19 08:47:16;;;;;;;14.80;9.50;;;;;;;19.69;100.00;100714.75;5593647;31;33959;-76
2023/08/19 08:50:21;;;;;;;12.82;9.77;;;;;;;19.72;100.00;100713.47;5607546;31;34885;-76
2023/08/19 08:53:27;;;;;;;12.05;9.45;;;;;;;19.71;100.00;100688.41;5607557;31;34201;-76
2023/08/19 08:56:29;;;;;;;15.07;10.43;;;;;;;19.67;100.00;100683.69;5607435;31;34875;-77
2023/08/19 08:59:32;;;;;;;13.57;10.00;;;;;;;19.66;100.00;100679.34;5607410;31;34687;-76
2023/08/19 09:02:35;;;;;;;12.10;10.32;;;;;;;19.72;100.00;100667.69;5604669;31;34127;-76
2023/08/19 09:05:41;;;;;;;14.45;10.82;;;;;;;19.72;100.00;100665.84;5606427;31;33901;-78
2023/08/19 09:08:57;;;;;;;14.27;11.15;;;;;;;19.77;100.00;100665.16;5606653;31;34273;-77
2023/08/19 09:12:03;;;;;;;13.70;11.25;;;;;;;19.87;100.00;100666.31;5607543;31;34079;-76
2023/08/19 09:15:07;;;;;;;14.15;11.40;;;;;;;19.95;100.00;100678.66;5606780;31;34948;-75
2023/08/19 09:18:10;;;;;;;16.52;12.43;;;;;;;20.03;100.00;100688.34;5607081;31;34634;-75
2023/08/19 09:21:13;;;;;;;12.43;11.07;;;;;;;20.18;100.00;100689.66;5607210;31;34118;-75
2023/08/19 09:24:16;;;;;;;13.00;11.02;;;;;;;20.34;100.00;100683.69;5607109;31;34065;-75
2023/08/19 09:27:29;;;;;;;15.02;10.90;;;;;;;20.32;100.00;100695.75;5607049;31;34898;-75
2023/08/19 09:30:35;;;;;;;12.15;10.95;;;;;;;20.39;100.00;100697.31;5607014;31;34220;-74
2023/08/19 09:33:48;;;;;;;13.23;11.23;;;;;;;20.49;100.00;100694.09;5607111;31;33949;-73
2023/08/19 09:36:56;;;;;;;13.77;10.95;;;;;;;20.55;100.00;100701.28;5607209;31;33895;-72
2023/08/19 09:39:58;;;;;;;14.63;11.20;;;;;;;20.56;100.00;100708.31;5607036;31;34017;-72
2023/08/19 09:43:02;;;;;;;14.48;12.23;;;;;;;20.64;100.00;100707.19;5607090;31;34148;-72
2023/08/19 09:46:05;;;;;;;14.82;12.55;;;;;;;20.72;100.00;100698.81;5605997;31;34105;-72
2023/08/19 09:49:07;;;;;;;14.18;12.45;;;;;;;20.90;100.00;100700.66;5606906;31;34333;-71
2023/08/19 09:52:17;;;;;;;16.02;12.10;;;;;;;20.83;100.00;100701.56;5607117;31;34166;-69
2023/08/19 09:55:25;;;;;;;14.15;11.73;;;;;;;20.97;100.00;100695.97;5607083;31;34194;-71
2023/08/19 09:58:28;;;;;;;13.82;10.77;;;;;;;21.09;100.00;100695.00;5606881;31;34349;-71
2023/08/19 10:01:32;;;;;;;13.27;10.40;;;;;;;21.40;100.00;100688.53;5600951;31;34832;-70
2023/08/19 10:04:35;;;;;;;11.90;9.88;;;;;;;21.57;100.00;100677.91;5606738;31;34807;-69
2023/08/19 10:07:45;;;;;;;10.23;9.15;;;;;;;21.67;100.00;100680.84;5587561;31;34179;-69
2023/08/19 10:10:48;;;;;;;9.98;8.77;;;;;;;22.18;100.00;100685.59;5586676;31;34103;-71
2023/08/19 10:13:54;;;;;;;11.70;8.85;;;;;;;22.37;100.00;100680.84;5587094;31;34171;-70
2023/08/19 10:17:05;;;;;;;11.85;8.60;;;;;;;22.86;100.00;100680.28;5587428;31;33922;-71
2023/08/19 10:20:13;;;;;;;10.82;8.25;;;;;;;23.04;100.00;100690.12;5586152;31;34202;-71
2023/08/19 10:23:17;;;;;;;8.57;6.95;;;;;;;23.64;100.00;100690.38;5586845;31;34898;-72
2023/08/19 10:26:21;;;;;;;10.05;7.12;;;;;;;23.28;100.00;100685.41;5595053;31;35657;-70
2023/08/19 10:29:24;;;;;;;7.32;6.62;;;;;;;23.42;100.00;100692.16;5586055;31;34016;-71
2023/08/19 10:32:31;;;;;;;7.93;6.53;;;;;;;23.21;100.00;100680.13;5603399;31;34314;-71
2023/08/19 10:35:59;;;;;;;6.82;6.10;;;;;;;23.81;100.00;100674.13;5606567;31;34183;-71
2023/08/19 10:39:02;;;;;;;7.03;6.28;;;;;;;23.59;100.00;100678.66;5592936;31;34285;-71
2023/08/19 10:42:05;;;;;;;7.37;6.10;;;;;;;23.92;100.00;100672.38;5586113;31;34923;-72
2023/08/19 10:45:16;;;;;;;7.12;5.80;;;;;;;23.82;100.00;100660.31;5586490;31;34159;-72
2023/08/19 10:48:32;;;;;;;6.28;5.65;;;;;;;24.17;100.00;100646.50;5586444;31;34250;-73
2023/08/19 10:51:53;;;;;;;8.88;5.87;;;;;;;24.97;100.00;100645.06;5586354;31;34137;-73
2023/08/19 10:54:58;;;;;;;6.57;5.75;;;;;;;25.21;100.00;100653.69;5586512;31;34673;-72
2023/08/19 10:58:01;;;;;;;9.68;6.03;;;;;;;25.11;100.00;100649.00;5605236;31;34751;-73
2023/08/19 11:01:05;;;;;;;6.68;5.60;;;;;;;25.03;100.00;100652.16;5605999;31;34260;-73
2023/08/19 11:04:08;;;;;;;8.50;5.53;;;;;;;26.07;100.00;100646.22;5605806;31;33893;-73
2023/08/19 11:07:12;;;;;;;7.15;5.53;;;;;;;26.09;100.00;100646.78;5606296;31;32278;-71
2023/08/19 11:10:14;;;;;;;7.20;5.60;;;;;;;25.70;100.00;100643.53;5605108;31;34331;-72
2023/08/19 11:13:17;;;;;;;7.12;5.47;;;;;;;25.60;100.00;100641.56;5606091;31;33671;-73
2023/08/19 11:16:25;;;;;;;10.07;5.18;;;;;;;27.32;100.00;100647.75;5606360;31;34737;-72
2023/08/19 11:19:30;;;;;;;6.75;5.35;;;;;;;28.05;100.00;100646.34;5604765;31;34289;-69
2023/08/19 11:22:49;;;;;;;6.03;5.32;;;;;;;27.15;100.00;100639.03;5605942;31;34192;-70
2023/08/19 11:25:52;;;;;;;5.43;4.45;;;;;;;28.20;100.00;100650.97;5605608;31;34978;-70
2023/08/19 11:28:54;;;;;;;8.35;4.90;;;;;;;28.89;100.00;100644.69;5605726;31;35155;-70
2023/08/19 11:32:00;;;;;;;8.82;4.72;;;;;;;29.52;100.00;100642.88;5605496;31;34293;-71
2023/08/19 11:35:03;;;;;;;6.00;4.45;;;;;;;29.91;100.00;100644.75;5601487;31;35364;-70
2023/08/19 11:38:15;;;;;;;4.15;3.75;;;;;;;29.73;100.00;100640.75;5586583;31;34848;-70
2023/08/19 11:41:17;;;;;;;6.47;3.70;;;;;;;30.52;90.87;100628.44;5587409;31;34984;-70
2023/08/19 11:44:22;;;;;;;5.30;3.65;;;;;;;32.23;74.15;100632.25;5587426;31;34216;-70
2023/08/19 11:47:25;;;;;;;5.87;3.62;;;;;;;32.36;77.66;100634.16;5587953;31;34305;-70
2023/08/19 11:50:34;;;;;;;4.10;3.42;;;;;;;32.19;74.63;100633.97;5587970;31;34145;-69
2023/08/19 11:53:37;;;;;;;6.15;3.90;;;;;;;32.02;69.31;100630.97;5588454;31;34373;-69
2023/08/19 11:56:49;;;;;;;8.38;3.22;;;;;;;32.20;75.15;100630.09;5587470;31;34403;-69
2023/08/19 11:59:56;;;;;;;5.40;3.65;;;;;;;31.68;69.81;100625.84;5587570;31;35228;-69
2023/08/19 12:03:01;;;;;;;5.20;3.40;;;;;;;31.53;73.39;100632.38;5587511;31;34288;-70
2023/08/19 12:06:04;;;;;;;4.00;3.28;;;;;;;31.82;69.77;100632.16;5598061;31;34152;-69
2023/08/19 12:09:07;;;;;;;4.75;3.30;;;;;;;31.55;71.99;100632.91;5607343;31;34295;-69
2023/08/19 12:12:11;;;;;;;4.50;3.25;;;;;;;33.43;68.32;100638.88;5607650;31;35966;-69
2023/08/19 12:15:14;;;;;;;8.00;3.42;;;;;;;35.21;54.03;100642.91;5607314;31;35445;-70
2023/08/19 12:18:17;;;;;;;6.82;3.50;;;;;;;37.14;50.35;100645.81;5607603;31;35459;-70
2023/08/19 12:21:19;;;;;;;4.07;2.87;;;;;;;34.63;55.12;100633.09;5599317;31;34229;-71
2023/08/19 12:24:23;;;;;;;4.70;3.03;;;;;;;35.71;50.12;100643.16;5589390;31;33958;-70
2023/08/19 12:27:25;;;;;;;3.97;2.72;;;;;;;35.73;46.91;100636.16;5586946;31;34333;-70
2023/08/19 12:30:28;;;;;;;5.22;2.80;;;;;;;34.68;53.67;100632.16;5587641;31;34353;-70
2023/08/19 12:33:31;;;;;;;3.42;2.78;;;;;;;36.08;48.11;100624.97;5606394;31;35012;-70
2023/08/19 12:36:34;;;;;;;4.30;3.00;;;;;;;36.26;49.92;100625.75;5606455;31;34441;-71
2023/08/19 12:39:36;;;;;;;3.80;2.75;;;;;;;39.00;41.85;100627.50;5605977;31;35806;-70
2023/08/19 12:42:39;;;;;;;5.53;2.70;;;;;;;39.03;38.79;100617.66;5605867;31;34752;-70
2023/08/19 12:45:51;;;;;;;4.87;3.03;;;;;;;37.15;44.75;100602.34;5606285;31;34837;-71
2023/08/19 12:48:53;;;;;;;5.85;2.78;;;;;;;39.64;40.30;100606.28;5607423;31;34394;-71
2023/08/19 12:51:56;;;;;;;3.70;2.70;;;;;;;37.77;40.45;100599.41;5606806;31;35005;-70
2023/08/19 12:54:59;;;;;;;5.03;3.17;;;;;;;36.49;43.10;100591.94;5607270;31;34104;-69
2023/08/19 12:58:04;;;;;;;5.07;2.62;;;;;;;37.60;41.67;100600.44;5606641;31;34314;-69
2023/08/19 13:01:07;;;;;;;6.18;2.92;;;;;;;38.21;39.05;100598.50;5606960;31;35100;-69
2023/08/19 13:04:09;;;;;;;4.18;2.75;;;;;;;40.28;36.43;100605.94;5607256;31;34955;-69
2023/08/19 13:07:12;;;;;;;4.53;2.50;;;;;;;39.96;37.68;100603.16;5606926;31;34132;-70
2023/08/19 13:10:15;;;;;;;4.07;2.70;;;;;;;44.05;32.19;100615.09;5607167;31;34896;-71
2023/08/19 13:13:17;;;;;;;3.37;2.47;;;;;;;41.16;34.70;100607.03;5607065;31;34410;-71
2023/08/19 13:16:20;;;;;;;3.45;2.70;;;;;;;40.61;36.23;100599.94;5606127;31;34114;-71
2023/08/19 13:19:23;;;;;;;4.72;2.70;;;;;;;39.46;36.98;100589.94;5607033;31;34348;-70
2023/08/19 13:22:26;;;;;;;3.65;2.87;;;;;;;41.05;35.46;100594.91;5606896;31;34468;-70
2023/08/19 13:25:29;;;;;;;3.80;2.67;;;;;;;40.76;34.07;100588.75;5606850;31;34212;-70
2023/08/19 13:28:31;;;;;;;4.18;2.72;;;;;;;39.36;37.58;100586.91;5606622;31;34234;-69
2023/08/19 13:31:34;;;;;;;5.00;3.00;;;;;;;39.41;37.08;100589.41;5606834;31;35435;-71
2023/08/19 13:34:38;;;;;;;4.00;2.90;;;;;;;40.37;35.62;100587.88;5588335;31;34476;-69
2023/08/19 13:37:41;;;;;;;5.43;2.97;;;;;;;38.54;37.60;100586.47;5586862;31;34793;-69
2023/08/19 13:40:44;;;;;;;5.65;3.15;;;;;;;38.84;38.00;100581.41;5587038;31;34445;-69
2023/08/19 13:43:47;;;;;;;4.75;2.78;;;;;;;39.87;36.72;100580.31;5586880;31;34897;-69
2023/08/19 13:46:50;;;;;;;4.43;2.90;;;;;;;40.04;35.71;100581.88;5585711;31;34279;-69
2023/08/19 13:49:53;;;;;;;4.00;2.83;;;;;;;41.11;34.34;100588.66;5586116;31;34041;-70
2023/08/19 13:52:56;;;;;;;5.80;3.10;;;;;;;43.91;31.16;100584.25;5586963;31;35376;-71
2023/08/19 13:55:58;;;;;;;4.75;3.08;;;;;;;44.69;29.14;100576.31;5585607;31;34477;-70
2023/08/19 13:59:03;;;;;;;4.97;3.10;;;;;;;43.18;31.73;100574.75;5587031;31;34129;-70
2023/08/19 14:02:05;;;;;;;4.60;2.72;;;;;;;43.84;31.37;100572.97;5586548;31;34205;-69
2023/08/19 14:05:12;;;;;;;5.40;2.80;;;;;;;43.36;30.29;100571.31;5603189;31;33887;-71